createdAt,value
2018-10-07T00:00:37.259Z,1.93
2018-10-07T00:03:06.146Z,2.17
2018-10-07T00:05:34.821Z,2.40
2018-10-07T00:08:03.491Z,1.90
2018-10-07T00:10:32.191Z,1.70
2018-10-07T00:13:00.842Z,2.10
2018-10-07T00:15:29.495Z,1.97
2018-10-07T00:17:58.136Z,2.23
2018-10-07T00:20:26.833Z,1.70
2018-10-07T00:22:55.498Z,1.20
2018-10-07T00:25:24.216Z,1.80
2018-10-07T00:27:53.110Z,1.60
2018-10-07T00:30:21.878Z,1.80
2018-10-07T00:32:50.669Z,1.70
2018-10-07T00:35:19.325Z,1.47
2018-10-07T00:37:48.461Z,1.70
2018-10-07T00:40:17.196Z,1.60
2018-10-07T00:42:45.838Z,1.67
2018-10-07T00:45:14.613Z,1.40
2018-10-07T00:47:43.416Z,1.50
2018-10-07T00:50:12.116Z,1.40
2018-10-07T00:52:40.806Z,1.37
2018-10-07T00:55:09.523Z,1.20
2018-10-07T00:57:38.229Z,1.40
2018-10-07T01:00:07.444Z,1.60
2018-10-07T01:02:36.179Z,1.43
2018-10-07T01:05:05.046Z,1.53
2018-10-07T01:07:33.771Z,0.90
2018-10-07T01:10:02.429Z,1.23
2018-10-07T01:12:31.150Z,1.10
2018-10-07T01:14:59.896Z,1.27
2018-10-07T01:17:28.582Z,1.33
2018-10-07T01:19:57.333Z,1.37
2018-10-07T01:22:26.024Z,1.07
2018-10-07T01:24:54.719Z,0.87
2018-10-07T01:27:23.460Z,0.70
2018-10-07T01:29:52.164Z,1.10
2018-10-07T01:32:20.891Z,1.30
2018-10-07T01:34:49.598Z,0.93
2018-10-07T01:37:18.320Z,0.73
2018-10-07T01:39:47.118Z,0.83
2018-10-07T01:42:15.771Z,0.80
2018-10-07T01:44:44.515Z,0.77
2018-10-07T01:47:13.220Z,0.90
2018-10-07T01:49:41.890Z,0.80
2018-10-07T01:52:10.590Z,0.93
2018-10-07T01:54:39.292Z,0.87
2018-10-07T01:57:07.996Z,0.70
2018-10-07T01:59:36.657Z,0.80
2018-10-07T02:02:05.363Z,0.53
2018-10-07T02:04:34.048Z,0.60
2018-10-07T02:07:02.803Z,2.07
2018-10-07T02:09:31.555Z,1.13
2018-10-07T02:12:00.263Z,0.70
2018-10-07T02:14:28.971Z,0.87
2018-10-07T02:16:57.705Z,0.70
2018-10-07T02:19:26.350Z,0.57
2018-10-07T02:21:55.094Z,0.83
2018-10-07T02:24:23.854Z,1.07
2018-10-07T02:27:01.832Z,0.73
2018-10-07T02:29:30.542Z,0.77
2018-10-07T02:31:59.231Z,0.77
2018-10-07T02:34:27.900Z,1.00
2018-10-07T02:36:56.738Z,0.90
2018-10-07T02:39:25.565Z,0.47
2018-10-07T02:41:54.406Z,0.87
2018-10-07T02:44:23.266Z,0.53
2018-10-07T02:46:52.950Z,0.67
2018-10-07T02:49:21.816Z,1.07
2018-10-07T02:51:50.547Z,0.97
2018-10-07T02:54:19.279Z,1.30
2018-10-07T02:56:48.028Z,0.73
2018-10-07T02:59:17.066Z,0.70
2018-10-07T03:01:45.911Z,0.80
2018-10-07T03:04:14.746Z,0.83
2018-10-07T03:06:43.612Z,0.67
2018-10-07T03:09:12.306Z,1.20
2018-10-07T03:11:41.300Z,0.70
2018-10-07T03:14:10.023Z,0.57
2018-10-07T03:16:38.690Z,0.67
2018-10-07T03:19:07.379Z,0.70
2018-10-07T03:21:36.169Z,1.17
2018-10-07T03:24:04.962Z,0.80
2018-10-07T03:26:33.684Z,1.00
2018-10-07T03:29:02.532Z,0.70
2018-10-07T03:31:31.242Z,0.63
2018-10-07T03:33:59.944Z,0.73
2018-10-07T03:36:28.795Z,0.73
2018-10-07T03:38:58.316Z,0.63
2018-10-07T03:41:27.150Z,0.63
2018-10-07T03:43:55.966Z,0.80
2018-10-07T03:46:24.693Z,0.57
2018-10-07T03:48:53.519Z,0.50
2018-10-07T03:51:22.375Z,1.00
2018-10-07T03:53:51.219Z,0.57
2018-10-07T03:56:20.017Z,0.70
2018-10-07T03:58:48.789Z,0.33
2018-10-07T04:01:17.668Z,0.47
2018-10-07T04:03:46.367Z,0.37
2018-10-07T04:06:15.119Z,0.53
2018-10-07T04:08:43.817Z,1.70
2018-10-07T04:11:12.563Z,0.57
2018-10-07T04:13:41.274Z,0.70
2018-10-07T04:16:10.026Z,0.53
2018-10-07T04:18:38.663Z,0.73
2018-10-07T04:21:07.400Z,0.60
2018-10-07T04:23:36.620Z,0.60
2018-10-07T04:26:05.299Z,0.80
2018-10-07T04:28:34.270Z,0.50
2018-10-07T04:31:02.964Z,0.73
2018-10-07T04:33:31.706Z,0.60
2018-10-07T04:36:00.382Z,1.00
2018-10-07T04:38:29.146Z,0.60
2018-10-07T04:40:57.858Z,0.63
2018-10-07T04:43:26.519Z,0.70
2018-10-07T04:45:55.421Z,0.73
2018-10-07T04:48:24.179Z,1.00
2018-10-07T04:50:53.083Z,0.53
2018-10-07T04:53:21.989Z,0.97
2018-10-07T04:55:50.865Z,0.53
2018-10-07T04:58:19.640Z,0.60
2018-10-07T05:00:48.409Z,0.40
2018-10-07T05:03:17.117Z,0.80
2018-10-07T05:05:45.814Z,0.63
2018-10-07T05:08:14.604Z,0.70
2018-10-07T05:10:48.234Z,0.87
2018-10-07T05:13:18.729Z,0.50
2018-10-07T05:15:48.638Z,0.57
2018-10-07T05:18:17.322Z,0.43
2018-10-07T05:20:46.311Z,0.40
2018-10-07T05:23:14.923Z,0.70
2018-10-07T05:25:43.740Z,0.63
2018-10-07T05:28:12.372Z,0.30
2018-10-07T05:30:41.079Z,0.73
2018-10-07T05:33:09.850Z,1.00
2018-10-07T05:35:38.672Z,0.53
2018-10-07T05:38:07.566Z,1.20
2018-10-07T05:40:36.497Z,0.37
2018-10-07T05:43:05.423Z,0.50
2018-10-07T05:45:34.351Z,1.03
2018-10-07T05:48:03.174Z,0.63
2018-10-07T05:50:31.937Z,0.63
2018-10-07T05:53:00.820Z,0.70
2018-10-07T05:55:29.586Z,0.50
2018-10-07T05:57:59.360Z,0.60
2018-10-07T06:00:29.787Z,0.47
2018-10-07T06:03:03.976Z,0.80
2018-10-07T06:05:32.935Z,0.70
2018-10-07T06:08:01.740Z,0.73
2018-10-07T06:10:30.662Z,0.70
2018-10-07T06:12:59.495Z,0.43
2018-10-07T06:15:29.959Z,0.53
2018-10-07T06:17:59.259Z,1.00
2018-10-07T06:20:28.583Z,0.90
2018-10-07T06:22:58.305Z,0.70
2018-10-07T06:25:27.474Z,0.60
2018-10-07T06:27:57.233Z,0.83
2018-10-07T06:30:26.053Z,0.43
2018-10-07T06:32:56.085Z,0.90
2018-10-07T06:35:25.611Z,0.80
2018-10-07T06:37:55.204Z,0.60
2018-10-07T06:40:24.062Z,0.70
2018-10-07T06:42:53.387Z,0.77
2018-10-07T06:45:27.074Z,0.82
2018-10-07T06:47:56.315Z,0.47
2018-10-07T06:50:24.961Z,0.53
2018-10-07T06:52:55.035Z,0.60
2018-10-07T06:55:24.038Z,0.97
2018-10-07T06:57:53.498Z,0.60
2018-10-07T07:00:22.417Z,0.60
2018-10-07T07:02:51.527Z,0.87
2018-10-07T07:05:20.311Z,0.50
2018-10-07T07:07:50.367Z,0.67
2018-10-07T07:10:19.118Z,1.07
2018-10-07T07:12:48.352Z,0.77
2018-10-07T07:15:17.951Z,0.70
2018-10-07T07:17:46.832Z,0.70
2018-10-07T07:20:16.607Z,0.70
2018-10-07T07:22:45.960Z,0.83
2018-10-07T07:25:14.795Z,0.70
2018-10-07T07:27:44.146Z,1.43
2018-10-07T07:30:13.115Z,0.60
2018-10-07T07:32:41.946Z,0.70
2018-10-07T07:35:10.718Z,0.50
2018-10-07T07:37:40.427Z,0.90
2018-10-07T07:40:09.105Z,0.60
2018-10-07T07:42:38.645Z,0.60
2018-10-07T07:45:07.526Z,1.00
2018-10-07T07:47:36.712Z,1.33
2018-10-07T07:50:05.944Z,0.83
2018-10-07T07:52:34.905Z,0.90
2018-10-07T07:55:04.516Z,2.13
2018-10-07T07:57:33.683Z,0.70
2018-10-07T08:00:03.988Z,0.70
2018-10-07T08:02:32.953Z,0.73
2018-10-07T08:05:02.311Z,2.47
2018-10-07T08:07:31.680Z,1.00
2018-10-07T08:10:03.786Z,1.60
2018-10-07T08:12:32.840Z,1.30
2018-10-07T08:15:01.585Z,1.07
2018-10-07T08:17:30.389Z,0.90
2018-10-07T08:19:59.156Z,0.80
2018-10-07T08:22:29.605Z,1.60
2018-10-07T08:25:00.426Z,1.10
2018-10-07T08:27:30.313Z,1.00
2018-10-07T08:30:02.207Z,1.25
2018-10-07T08:32:32.829Z,0.90
2018-10-07T08:35:05.492Z,0.87
2018-10-07T08:40:15.202Z,1.27
2018-10-07T08:42:46.906Z,0.80
2018-10-07T08:45:17.061Z,1.23
2018-10-07T08:47:47.592Z,0.80
2018-10-07T08:50:17.588Z,1.23
2018-10-07T08:52:50.642Z,1.07
2018-10-07T08:55:22.376Z,0.97
2018-10-07T08:57:51.420Z,0.80
2018-10-07T09:00:20.291Z,0.67
2018-10-07T09:02:49.771Z,0.80
2018-10-07T09:05:18.549Z,0.90
2018-10-07T09:07:47.469Z,0.70
2018-10-07T09:10:16.240Z,0.60
2018-10-07T09:12:45.110Z,1.03
2018-10-07T09:18:38.374Z,0.70
2018-10-07T09:21:07.644Z,1.17
2018-10-07T09:23:36.539Z,0.77
2018-10-07T09:26:05.371Z,0.90
2018-10-07T09:28:34.414Z,0.67
2018-10-07T09:31:03.166Z,0.83
2018-10-07T09:33:33.091Z,1.03
2018-10-07T09:36:01.834Z,0.87
2018-10-07T09:38:30.682Z,1.30
2018-10-07T09:40:59.666Z,1.17
2018-10-07T09:43:28.724Z,0.80
2018-10-07T09:45:57.371Z,0.50
2018-10-07T09:48:27.714Z,0.90
2018-10-07T09:50:57.678Z,0.80
2018-10-07T09:53:27.498Z,1.03
2018-10-07T09:55:56.387Z,0.90
2018-10-07T09:58:24.960Z,2.00
2018-10-07T10:00:53.654Z,1.73
2018-10-07T10:03:22.532Z,1.03
2018-10-07T10:05:51.217Z,1.07
2018-10-07T10:08:19.895Z,1.10
2018-10-07T10:10:49.406Z,0.87
2018-10-07T10:13:18.693Z,1.00
2018-10-07T10:15:47.667Z,1.13
2018-10-07T10:18:18.261Z,1.47
2018-10-07T10:20:48.389Z,1.17
2018-10-07T10:23:52.113Z,0.80
2018-10-07T10:26:25.588Z,0.75
2018-10-07T10:29:12.477Z,0.77
2018-10-07T10:31:56.513Z,1.33
2018-10-07T10:34:25.732Z,1.30
2018-10-07T10:37:02.259Z,1.00
2018-10-07T10:39:33.464Z,1.00
2018-10-07T10:42:04.996Z,0.97
2018-10-07T10:44:35.671Z,0.83
2018-10-07T10:47:39.055Z,1.00
2018-10-07T10:50:14.262Z,1.10
2018-10-07T10:53:47.933Z,1.00
2018-10-07T10:56:18.564Z,1.17
2018-10-07T10:58:53.191Z,0.50
2018-10-07T11:01:24.289Z,0.90
2018-10-07T11:03:58.719Z,0.70
2018-10-07T11:06:33.140Z,1.17
2018-10-07T11:09:03.973Z,0.97
2018-10-07T11:11:37.323Z,0.83
2018-10-07T11:15:09.194Z,1.20
2018-10-07T11:17:43.688Z,1.33
2018-10-07T11:20:17.580Z,0.70
2018-10-07T11:22:58.136Z,1.03
2018-10-07T11:25:31.776Z,0.80
2018-10-07T11:30:08.495Z,0.73
2018-10-07T11:32:43.802Z,0.90
2018-10-07T11:35:18.942Z,0.93
2018-10-07T11:38:25.921Z,0.80
2018-10-07T11:41:33.059Z,1.00
2018-10-07T11:44:07.552Z,0.50
2018-10-07T11:48:43.709Z,1.13
2018-10-07T11:51:21.953Z,1.00
2018-10-07T11:53:52.755Z,0.57
2018-10-07T11:56:21.502Z,0.50
2018-10-07T11:58:50.677Z,0.67
2018-10-07T12:01:19.720Z,0.80
2018-10-07T12:03:49.489Z,0.93
2018-10-07T12:06:18.405Z,0.70
2018-10-07T12:08:47.775Z,0.93
2018-10-07T12:11:16.964Z,1.30
2018-10-07T12:13:46.029Z,0.80
2018-10-07T12:16:14.951Z,0.60
2018-10-07T12:18:43.724Z,3.10
2018-10-07T12:21:12.525Z,1.63
2018-10-07T12:23:41.437Z,1.27
2018-10-07T12:26:10.224Z,1.27
2018-10-07T12:28:40.026Z,1.20
2018-10-07T12:31:09.174Z,1.13
2018-10-07T12:33:39.154Z,1.17
2018-10-07T12:36:08.473Z,0.90
2018-10-07T12:38:37.201Z,0.90
2018-10-07T12:41:21.304Z,0.72
2018-10-07T12:43:50.069Z,1.67
2018-10-07T12:46:18.882Z,1.13
2018-10-07T12:48:47.577Z,1.57
2018-10-07T12:51:16.249Z,0.67
2018-10-07T12:53:44.903Z,0.77
2018-10-07T12:56:13.567Z,1.23
2018-10-07T12:58:42.184Z,1.03
2018-10-07T13:01:10.835Z,1.03
2018-10-07T13:03:39.601Z,1.00
2018-10-07T13:06:08.241Z,1.50
2018-10-07T13:08:37.442Z,2.00
2018-10-07T13:11:06.345Z,0.93
2018-10-07T13:13:36.177Z,1.07
2018-10-07T13:16:04.938Z,1.40
2018-10-07T13:18:33.613Z,0.90
2018-10-07T13:21:02.369Z,0.73
2018-10-07T13:23:31.179Z,0.77
2018-10-07T13:25:59.888Z,0.83
2018-10-07T13:28:29.047Z,1.20
2018-10-07T13:30:58.164Z,1.13
2018-10-07T13:33:27.093Z,1.03
2018-10-07T13:35:55.816Z,1.27
2018-10-07T13:38:24.887Z,1.00
2018-10-07T13:40:53.536Z,1.47
2018-10-07T13:43:22.329Z,1.10
2018-10-07T13:45:51.323Z,1.53
2018-10-07T13:48:20.343Z,1.10
2018-10-07T13:50:49.437Z,1.33
2018-10-07T13:53:18.160Z,0.90
2018-10-07T13:55:46.876Z,1.10
2018-10-07T13:58:15.716Z,1.43
2018-10-07T14:00:44.375Z,0.90
2018-10-07T14:03:13.111Z,0.90
2018-10-07T14:05:41.906Z,0.83
2018-10-07T14:08:11.028Z,1.27
2018-10-07T14:10:39.791Z,1.33
2018-10-07T14:13:08.419Z,1.00
2018-10-07T14:15:37.164Z,0.97
2018-10-07T14:18:05.985Z,1.00
2018-10-07T14:20:34.637Z,1.07
2018-10-07T14:23:04.002Z,0.87
2018-10-07T14:25:32.792Z,1.30
2018-10-07T14:28:03.395Z,1.27
2018-10-07T14:30:32.323Z,0.90
2018-10-07T14:33:01.180Z,1.67
2018-10-07T14:35:29.882Z,1.03
2018-10-07T14:37:58.805Z,1.10
2018-10-07T14:40:27.676Z,1.27
2018-10-07T14:42:56.364Z,0.97
2018-10-07T14:45:25.482Z,1.30
2018-10-07T14:47:54.664Z,1.70
2018-10-07T14:50:23.823Z,1.10
2018-10-07T14:52:52.786Z,0.90
2018-10-07T14:55:21.724Z,1.57
2018-10-07T14:57:50.515Z,0.93
2018-10-07T15:00:19.306Z,2.08
2018-10-07T15:02:48.388Z,1.87
2018-10-07T15:05:17.913Z,1.27
2018-10-07T15:07:52.281Z,2.47
2018-10-07T15:10:21.185Z,2.37
2018-10-07T15:12:50.090Z,1.87
2018-10-07T15:15:19.176Z,2.30
2018-10-07T15:17:48.722Z,1.60
2018-10-07T15:20:17.427Z,1.73
2018-10-07T15:22:46.327Z,1.57
2018-10-07T15:25:15.065Z,2.20
2018-10-07T15:27:43.905Z,1.70
2018-10-07T15:30:12.583Z,1.80
2018-10-07T15:32:41.293Z,1.50
2018-10-07T15:35:10.075Z,1.67
2018-10-07T15:37:38.982Z,1.50
2018-10-07T15:40:08.092Z,2.03
2018-10-07T15:42:37.029Z,1.40
2018-10-07T15:45:05.907Z,1.60
2018-10-07T15:47:34.806Z,1.53
2018-10-07T15:50:04.050Z,1.50
2018-10-07T15:52:34.800Z,1.57
2018-10-07T15:55:10.669Z,1.33
2018-10-07T15:57:49.709Z,1.40
2018-10-07T16:00:18.935Z,1.73
2018-10-07T16:02:47.679Z,1.27
2018-10-07T16:05:16.491Z,1.20
2018-10-07T16:07:45.393Z,1.90
2018-10-07T16:10:14.780Z,1.50
2018-10-07T16:12:43.613Z,1.30
2018-10-07T16:15:12.914Z,1.37
2018-10-07T16:17:41.761Z,1.57
2018-10-07T16:20:10.560Z,1.33
2018-10-07T16:22:39.711Z,1.20
2018-10-07T16:25:08.334Z,1.60
2018-10-07T16:27:37.089Z,0.90
2018-10-07T16:30:07.026Z,1.23
2018-10-07T16:32:36.266Z,1.63
2018-10-07T16:35:05.115Z,1.53
2018-10-07T16:37:33.876Z,1.63
2018-10-07T16:40:02.593Z,1.30
2018-10-07T16:42:31.560Z,1.03
2018-10-07T16:45:00.285Z,1.50
2018-10-07T16:47:28.984Z,1.63
2018-10-07T16:49:57.625Z,1.67
2018-10-07T16:52:26.270Z,2.00
2018-10-07T16:54:55.031Z,1.70
2018-10-07T16:57:23.811Z,2.47
2018-10-07T16:59:52.727Z,1.70
2018-10-07T17:02:21.724Z,1.93
2018-10-07T17:04:50.532Z,1.67
2018-10-07T17:07:19.290Z,1.33
2018-10-07T17:09:48.097Z,1.50
2018-10-07T17:12:16.985Z,1.77
2018-10-07T17:14:45.737Z,1.60
2018-10-07T17:17:14.502Z,2.00
2018-10-07T17:19:43.206Z,1.50
2018-10-07T17:22:11.892Z,1.40
2018-10-07T17:24:40.555Z,1.50
2018-10-07T17:27:09.416Z,1.90
2018-10-07T17:29:38.039Z,1.40
2018-10-07T17:32:06.747Z,1.63
2018-10-07T17:34:35.455Z,1.50
2018-10-07T17:37:04.436Z,1.40
2018-10-07T17:39:33.303Z,1.27
2018-10-07T17:42:01.938Z,2.40
2018-10-07T17:44:30.669Z,1.80
2018-10-07T17:46:59.341Z,1.37
2018-10-07T17:49:28.048Z,1.07
2018-10-07T17:51:56.766Z,1.40
2018-10-07T17:54:25.436Z,1.23
2018-10-07T17:56:54.826Z,1.10
2018-10-07T17:59:23.601Z,1.50
2018-10-07T18:01:53.225Z,1.00
2018-10-07T18:04:21.794Z,1.30
2018-10-07T18:06:50.516Z,1.00
2018-10-07T18:09:19.290Z,1.37
2018-10-07T18:11:48.259Z,1.00
2018-10-07T18:14:17.015Z,1.00
2018-10-07T18:16:45.697Z,1.10
2018-10-07T18:19:14.381Z,1.43
2018-10-07T18:21:43.664Z,1.00
2018-10-07T18:24:12.416Z,1.43
2018-10-07T18:26:41.257Z,1.50
2018-10-07T18:29:10.246Z,1.30
2018-10-07T18:31:38.914Z,1.40
2018-10-07T18:34:07.757Z,1.20
2018-10-07T18:36:36.416Z,2.17
2018-10-07T18:39:06.520Z,1.40
2018-10-07T18:41:35.353Z,1.30
2018-10-07T18:44:04.325Z,1.03
2018-10-07T18:46:33.013Z,1.50
2018-10-07T18:49:01.823Z,1.40
2018-10-07T18:51:30.935Z,1.20
2018-10-07T18:53:59.666Z,1.03
2018-10-07T18:56:28.496Z,1.23
2018-10-07T18:58:57.257Z,0.93
2018-10-07T19:01:26.175Z,1.30
2018-10-07T19:03:54.937Z,1.47
2018-10-07T19:06:23.730Z,1.83
2018-10-07T19:08:52.483Z,3.03
2018-10-07T19:11:21.097Z,1.47
2018-10-07T19:13:49.759Z,1.20
2018-10-07T19:16:18.478Z,0.93
2018-10-07T19:18:47.190Z,1.30
2018-10-07T19:21:15.949Z,1.47
2018-10-07T19:23:44.587Z,0.80
2018-10-07T19:26:13.380Z,0.88
2018-10-07T19:28:42.114Z,1.50
2018-10-07T19:31:10.834Z,1.00
2018-10-07T19:33:39.559Z,1.37
2018-10-07T19:36:08.235Z,1.20
2018-10-07T19:38:36.874Z,1.20
2018-10-07T19:41:05.689Z,0.90
2018-10-07T19:43:34.440Z,1.20
2018-10-07T19:46:03.128Z,1.43
2018-10-07T19:48:31.770Z,1.23
2018-10-07T19:51:00.491Z,1.33
2018-10-07T19:53:29.127Z,1.00
2018-10-07T19:55:57.796Z,1.70
2018-10-07T19:58:26.577Z,1.80
2018-10-07T20:00:55.468Z,1.07
2018-10-07T20:03:24.317Z,1.50
2018-10-07T20:05:52.949Z,1.27
2018-10-07T20:08:21.604Z,1.57
2018-10-07T20:10:50.308Z,1.37
2018-10-07T20:13:19.022Z,1.43
2018-10-07T20:15:47.686Z,1.53
2018-10-07T20:18:16.476Z,1.43
2018-10-07T20:20:45.353Z,1.47
2018-10-07T20:23:14.118Z,1.13
2018-10-07T20:25:42.819Z,1.23
2018-10-07T20:28:11.463Z,2.57
2018-10-07T20:30:40.165Z,2.00
2018-10-07T20:33:08.823Z,1.60
2018-10-07T20:35:37.494Z,2.33
2018-10-07T20:38:06.239Z,3.20
2018-10-07T20:40:35.031Z,2.10
2018-10-07T20:43:04.265Z,2.92
2018-10-07T20:45:33.019Z,2.80
2018-10-07T20:48:01.704Z,1.43
2018-10-07T20:50:30.452Z,2.40
2018-10-07T20:52:59.135Z,1.80
2018-10-07T20:55:27.782Z,1.77
2018-10-07T20:57:56.455Z,1.90
2018-10-07T21:00:25.158Z,1.97
2018-10-07T21:02:53.857Z,1.47
2018-10-07T21:05:22.636Z,1.53
2018-10-07T21:07:51.499Z,1.90
2018-10-07T21:10:20.164Z,1.53
2018-10-07T21:12:48.831Z,1.50
2018-10-07T21:15:17.454Z,1.43
2018-10-07T21:17:46.227Z,1.37
2018-10-07T21:20:14.905Z,1.50
2018-10-07T21:22:43.695Z,1.67
2018-10-07T21:25:13.368Z,1.80
2018-10-07T21:27:42.026Z,1.23
2018-10-07T21:30:10.694Z,1.30
2018-10-07T21:32:39.485Z,1.53
2018-10-07T21:35:08.257Z,1.50
2018-10-07T21:37:37.074Z,1.63
2018-10-07T21:40:05.710Z,2.30
2018-10-07T21:42:34.363Z,1.40
2018-10-07T21:45:03.774Z,1.47
2018-10-07T21:47:32.407Z,1.50
2018-10-07T21:50:01.066Z,1.73
2018-10-07T21:52:29.801Z,1.37
2018-10-07T21:54:58.519Z,1.30
2018-10-07T21:57:27.209Z,1.43
2018-10-07T21:59:55.846Z,1.40
2018-10-07T22:02:24.587Z,1.10
2018-10-07T22:04:53.211Z,1.73
2018-10-07T22:07:21.940Z,1.97
2018-10-07T22:09:50.576Z,1.47
2018-10-07T22:12:19.248Z,1.53
2018-10-07T22:14:47.904Z,1.03
2018-10-07T22:17:16.523Z,1.47
2018-10-07T22:19:45.146Z,1.63
2018-10-07T22:22:13.810Z,1.47
2018-10-07T22:24:42.491Z,1.40
2018-10-07T22:27:11.230Z,1.33
2018-10-07T22:29:40.034Z,1.30
2018-10-07T22:32:08.749Z,1.63
2018-10-07T22:34:37.381Z,1.50
2018-10-07T22:37:06.009Z,1.43
2018-10-07T22:39:34.639Z,1.40
2018-10-07T22:42:04.013Z,1.67
2018-10-07T22:44:32.662Z,1.70
2018-10-07T22:47:01.279Z,1.50
2018-10-07T22:49:30.127Z,1.80
2018-10-07T22:51:58.759Z,1.37
2018-10-07T22:54:27.453Z,1.87
2018-10-07T22:56:56.103Z,1.27
2018-10-07T22:59:24.719Z,1.30
2018-10-07T23:01:53.416Z,1.57
2018-10-07T23:04:22.088Z,1.70
2018-10-07T23:06:50.698Z,1.73
2018-10-07T23:09:19.374Z,1.60
2018-10-07T23:11:48.081Z,1.50
2018-10-07T23:14:16.733Z,1.50
2018-10-07T23:16:45.469Z,2.00
2018-10-07T23:19:14.135Z,1.67
2018-10-07T23:21:42.882Z,1.97
2018-10-07T23:24:11.508Z,1.30
2018-10-07T23:26:40.145Z,1.87
2018-10-07T23:29:08.781Z,1.53
2018-10-07T23:31:37.476Z,1.80
2018-10-07T23:34:06.246Z,2.20
2018-10-07T23:36:34.892Z,1.87
2018-10-07T23:39:06.050Z,1.93
2018-10-07T23:41:34.674Z,1.60
2018-10-07T23:44:04.125Z,1.83
2018-10-07T23:46:32.808Z,2.00
2018-10-07T23:49:01.452Z,2.00
2018-10-07T23:51:30.144Z,1.77
2018-10-07T23:53:58.720Z,1.93
2018-10-07T23:56:27.377Z,1.90
2018-10-07T23:58:56.168Z,2.00
